sim
Sign-in with your pilot id or email,
or register
Callsign
Passwort

Schedule Details

Flight Number: DLH1672
Departure: Munich Airport (EDDM) at 21:05
Arrival: Cluj-Napoca International Airport (LRCL) at 22:45
Route: Lufthansa Passenger Schedule. Enter filed route here before submitting Pirep.

Weather Information
Getting current METAR information for EDDM 210220Z VRB02KT CAVOK 09/09 Q1016 NOSIG
Getting current METAR information for LRCL 210230Z 07002KT CAVOK 06/05 Q1021

Schedule Frequency

Route Map